Skip Navigation Links Skip Navigation Links

Current Weather

Ahwaz, Iran

For information only: do not use for flight planning or navigation.
Latest weather
Observation time Thursday, October 17, 2019 9:00 AM IRST
Local time Thursday, October 17, 2019 9:20 AM IRST
Flight conditions Marginal Visual Meteorological Conditions
Winds
Wind speed calm
Visibility 5 mi.
Sky condition
Ceiling unlimited
Temperature 88°F
Dewpoint 55°F
Altimeter 29.94 in.Hg
Derived measurements
Relative humidity 33%
Heat index 88°F
Density altitude 2087 ft.
METAR OIAW 170530Z 00000KT 8000 NSC 31/13 Q1014

Settings

Location code

InnerDrive.Weather 4.0.6770.0 Release CLR 4.0.30319.42000
Copyright ©2018 Inner Drive Technology. All rights reserved. Portions Copyright ©1986-2018 David Braverman.

Find weather

Site navigation


Skip Navigation Links

Place info

Page info

PayPal - The safer, easier way to pay online!

Return home.

Copyright ©2019 Inner Drive Technology. Purveyors of fine, hand-crafted computer software. Page printed 2019-10-17T05:50:35 UTC.